createdAt,value
2023-01-13T00:04:12.033Z,99524.41
2023-01-13T00:09:15.022Z,99542.66
2023-01-13T00:14:18.488Z,99540.69
2023-01-13T00:19:22.916Z,99536.72
2023-01-13T00:24:25.782Z,99542.16
2023-01-13T00:29:28.525Z,99544.34
2023-01-13T00:34:32.810Z,99554.75
2023-01-13T00:39:35.545Z,99549.88
2023-01-13T00:44:38.264Z,99550.03
2023-01-13T00:49:42.527Z,99550.19
2023-01-13T00:54:45.593Z,99515.81
2023-01-13T00:59:49.719Z,99534.13
2023-01-13T01:04:53.966Z,99534.63
2023-01-13T01:09:56.745Z,99535.75
2023-01-13T01:14:59.840Z,99544.00
2023-01-13T01:20:04.444Z,99554.09
2023-01-13T01:25:08.361Z,99554.97
2023-01-13T01:30:12.537Z,99567.06
2023-01-13T01:35:16.897Z,99566.09
2023-01-13T01:40:19.781Z,99564.34
2023-01-13T01:45:24.877Z,99558.69
2023-01-13T01:50:30.003Z,99559.75
2023-01-13T01:55:36.962Z,99569.00
2023-01-13T02:00:39.905Z,99575.59
2023-01-13T02:05:43.964Z,99566.53
2023-01-13T02:10:51.628Z,99574.72
2023-01-13T02:16:00.874Z,99565.94
2023-01-13T02:21:21.089Z,99570.47
2023-01-13T02:26:53.189Z,99566.22
2023-01-13T02:32:05.191Z,99581.75
2023-01-13T02:37:15.533Z,99570.56
2023-01-13T02:42:42.316Z,99570.34
2023-01-13T02:47:50.130Z,99574.53
2023-01-13T02:52:57.350Z,99571.19
2023-01-13T02:58:02.167Z,99572.69
2023-01-13T03:03:06.393Z,99578.91
2023-01-13T03:08:19.954Z,99579.63
2023-01-13T03:13:35.682Z,99594.78
2023-01-13T03:18:47.868Z,99604.72
2023-01-13T03:23:54.300Z,99599.50
2023-01-13T03:29:03.615Z,99605.16
2023-01-13T03:34:11.895Z,99614.91
2023-01-13T03:39:20.886Z,99620.59
2023-01-13T03:44:32.853Z,99622.38
2023-01-13T03:49:42.229Z,99612.50
2023-01-13T03:54:52.531Z,99613.91
2023-01-13T03:59:59.748Z,99614.78
2023-01-13T04:05:08.762Z,99606.75
2023-01-13T04:10:13.569Z,99603.59
2023-01-13T04:15:17.145Z,99593.53
2023-01-13T04:20:22.010Z,99583.63
2023-01-13T04:25:24.771Z,99574.44
2023-01-13T04:30:28.150Z,99595.00
2023-01-13T04:35:32.648Z,99597.13
2023-01-13T04:40:35.435Z,99599.59
2023-01-13T04:45:38.215Z,99602.81
2023-01-13T04:50:42.460Z,99586.81
2023-01-13T04:55:47.219Z,99584.69
2023-01-13T05:00:51.227Z,99593.22
2023-01-13T05:05:55.361Z,99595.91
2023-01-13T05:11:01.473Z,99585.69
2023-01-13T05:16:18.230Z,99586.81
2023-01-13T05:21:39.687Z,99588.38
2023-01-13T05:26:42.824Z,99570.63
2023-01-13T05:31:45.772Z,99579.41
2023-01-13T05:36:50.013Z,99570.06
2023-01-13T05:42:24.698Z,99576.88
2023-01-13T05:47:27.610Z,99581.09
2023-01-13T05:52:32.093Z,99575.47
2023-01-13T05:57:34.945Z,99571.22
2023-01-13T06:02:37.785Z,99573.13
2023-01-13T06:07:42.008Z,99570.06
2023-01-13T06:12:44.922Z,99564.47
2023-01-13T06:17:48.142Z,99571.94
2023-01-13T06:22:54.422Z,99570.38
2023-01-13T06:27:58.217Z,99572.09
2023-01-13T06:33:05.262Z,99569.13
2023-01-13T06:38:12.255Z,99559.16
2023-01-13T06:43:18.006Z,99560.06
2023-01-13T06:48:23.247Z,99554.75
2023-01-13T06:53:27.418Z,99554.28
2023-01-13T06:58:30.357Z,99557.84
2023-01-13T07:03:33.154Z,99554.31
2023-01-13T07:08:37.434Z,99564.34
2023-01-13T07:13:57.818Z,99572.03
2023-01-13T07:19:00.554Z,99571.28
2023-01-13T07:24:04.968Z,99569.28
2023-01-13T07:29:07.839Z,99565.59
2023-01-13T07:34:10.587Z,99577.69
2023-01-13T07:39:14.761Z,99572.03
2023-01-13T07:44:17.601Z,99567.72
2023-01-13T07:49:20.339Z,99562.91
2023-01-13T07:54:35.189Z,99568.72
2023-01-13T07:59:42.375Z,99568.66
2023-01-13T08:04:45.220Z,99565.19
2023-01-13T08:09:49.335Z,99562.44
2023-01-13T08:14:53.962Z,99568.06
2023-01-13T08:19:56.722Z,99561.50
2023-01-13T08:25:00.879Z,99561.81
2023-01-13T08:30:03.702Z,99572.75
2023-01-13T08:35:07.798Z,99568.03
2023-01-13T08:40:14.474Z,99571.25
2023-01-13T08:45:17.627Z,99568.09
2023-01-13T08:50:21.245Z,99582.78
2023-01-13T08:55:25.469Z,99577.53
2023-01-13T09:00:28.310Z,99578.91
2023-01-13T09:05:31.146Z,99566.69
2023-01-13T09:10:36.038Z,99557.13
2023-01-13T09:15:39.349Z,99556.78
2023-01-13T09:20:42.141Z,99561.78
2023-01-13T09:25:46.397Z,99564.22
2023-01-13T09:30:49.291Z,99563.56
2023-01-13T09:35:52.259Z,99564.56
2023-01-13T09:40:56.973Z,99568.41
2023-01-13T09:46:05.892Z,99568.84
2023-01-13T09:51:17.492Z,99568.25
2023-01-13T09:56:21.967Z,99554.59
2023-01-13T10:01:29.235Z,99557.53
2023-01-13T10:06:36.226Z,99565.09
2023-01-13T10:12:01.697Z,99562.41
2023-01-13T10:17:12.779Z,99565.63
2023-01-13T10:22:23.352Z,99552.19
2023-01-13T10:27:33.106Z,99558.09
2023-01-13T10:32:35.954Z,99553.44
2023-01-13T10:37:39.608Z,99549.22
2023-01-13T10:42:44.024Z,99551.16
2023-01-13T10:48:07.046Z,99563.69
2023-01-13T10:53:21.047Z,99570.94
2023-01-13T10:58:26.550Z,99586.00
2023-01-13T11:03:40.666Z,99600.75
2023-01-13T11:08:46.259Z,99587.13
2023-01-13T11:14:12.127Z,99591.63
2023-01-13T11:19:19.760Z,99583.78
2023-01-13T11:24:28.323Z,99568.56
2023-01-13T11:29:40.943Z,99581.84
2023-01-13T11:34:46.595Z,99583.47
2023-01-13T11:39:57.851Z,99584.63
2023-01-13T11:45:11.973Z,99591.06
2023-01-13T11:50:17.650Z,99589.91
2023-01-13T11:55:34.746Z,99581.84
2023-01-13T12:00:45.885Z,99591.84
2023-01-13T12:06:02.920Z,99594.34
2023-01-13T12:11:16.409Z,99585.13
2023-01-13T12:16:27.135Z,99586.16
2023-01-13T12:21:33.238Z,99574.13
2023-01-13T12:26:42.401Z,99582.16
2023-01-13T12:31:49.346Z,99574.88
2023-01-13T12:37:00.876Z,99578.88
2023-01-13T12:42:26.988Z,99580.31
2023-01-13T12:47:38.767Z,99587.59
2023-01-13T12:52:45.604Z,99603.38
2023-01-13T12:58:16.324Z,99613.75
2023-01-13T13:03:31.375Z,99603.63
2023-01-13T13:08:45.672Z,99607.91
2023-01-13T13:13:49.876Z,99608.78
2023-01-13T13:18:54.562Z,99623.13
2023-01-13T13:24:12.074Z,99620.97
2023-01-13T13:29:27.653Z,99607.50
2023-01-13T13:34:39.590Z,99621.94
2023-01-13T13:40:01.272Z,99623.75
2023-01-13T13:45:38.346Z,99633.84
2023-01-13T13:50:48.757Z,99637.81
2023-01-13T13:55:57.181Z,99640.16
2023-01-13T14:01:00.757Z,99650.91
2023-01-13T14:06:08.980Z,99649.53
2023-01-13T14:11:27.909Z,99653.47
2023-01-13T14:16:31.847Z,99643.38
2023-01-13T14:21:36.130Z,99644.41
2023-01-13T14:26:39.290Z,99646.06
2023-01-13T14:31:43.203Z,99644.34
2023-01-13T14:36:51.049Z,99636.88
2023-01-13T14:41:54.256Z,99640.44
2023-01-13T14:47:00.397Z,99646.41
2023-01-13T14:52:14.338Z,99649.06
2023-01-13T14:57:25.428Z,99651.63
2023-01-13T15:02:40.686Z,99665.50
2023-01-13T15:07:50.379Z,99694.47
2023-01-13T15:12:55.280Z,99718.34
2023-01-13T15:17:58.224Z,99730.06
2023-01-13T15:23:02.330Z,99711.69
2023-01-13T15:28:06.969Z,99728.44
2023-01-13T15:33:12.433Z,99753.19
2023-01-13T15:38:18.743Z,99733.91
2023-01-13T15:43:41.052Z,99768.81
2023-01-13T15:48:43.858Z,99751.50
2023-01-13T15:53:48.099Z,99754.66
2023-01-13T15:58:50.942Z,99750.75
2023-01-13T16:03:55.018Z,99765.00
2023-01-13T16:09:00.208Z,99767.06
2023-01-13T16:14:03.015Z,99783.94
2023-01-13T16:19:05.788Z,99766.25
2023-01-13T16:24:10.027Z,99789.28
2023-01-13T16:29:13.478Z,99807.16
2023-01-13T16:34:16.325Z,99825.22
2023-01-13T16:39:24.738Z,99830.78
2023-01-13T16:44:27.294Z,99847.63
2023-01-13T16:49:30.131Z,99843.56
2023-01-13T16:54:34.354Z,99840.59
2023-01-13T16:59:37.394Z,99826.00
2023-01-13T17:04:40.219Z,99841.53
2023-01-13T17:09:44.512Z,99854.16
2023-01-13T17:14:47.271Z,99853.03
2023-01-13T17:19:50.112Z,99855.06
2023-01-13T17:24:54.307Z,99844.56
2023-01-13T17:29:57.066Z,99856.59
2023-01-13T17:35:01.632Z,99860.38
2023-01-13T17:40:07.158Z,99862.47
2023-01-13T17:45:12.403Z,99856.88
2023-01-13T17:50:15.283Z,99866.75
2023-01-13T17:55:19.413Z,99860.78
2023-01-13T18:00:22.836Z,99892.94
2023-01-13T18:05:25.960Z,99907.97
2023-01-13T18:10:30.176Z,99917.47
2023-01-13T18:15:33.644Z,99929.44
2023-01-13T18:20:53.965Z,99945.97
2023-01-13T18:26:16.807Z,99955.22
2023-01-13T18:31:19.665Z,99964.97
2023-01-13T18:36:22.912Z,99964.22
2023-01-13T18:41:44.583Z,99980.88
2023-01-13T18:46:47.405Z,99987.69
2023-01-13T18:51:50.899Z,99995.53
2023-01-13T18:56:56.146Z,100003.63
2023-01-13T19:01:59.214Z,99999.53
2023-01-13T19:07:02.166Z,100014.47
2023-01-13T19:12:10.101Z,100026.66
2023-01-13T19:17:17.579Z,100047.59
2023-01-13T19:22:23.555Z,100056.31
2023-01-13T19:27:28.368Z,100053.75
2023-01-13T19:32:31.399Z,100045.63
2023-01-13T19:37:36.647Z,100038.56
2023-01-13T19:42:58.199Z,100049.66
2023-01-13T19:48:06.347Z,100067.53
2023-01-13T19:53:15.345Z,100073.88
2023-01-13T19:58:19.904Z,100078.31
2023-01-13T20:03:24.971Z,100091.25
2023-01-13T20:08:27.989Z,100104.59
2023-01-13T20:13:33.754Z,100119.03
2023-01-13T20:18:37.186Z,100125.84
2023-01-13T20:23:40.041Z,100124.94
2023-01-13T20:28:44.547Z,100143.84
2023-01-13T20:33:50.458Z,100143.50
2023-01-13T20:38:56.628Z,100153.25
2023-01-13T20:44:00.819Z,100152.13
2023-01-13T20:49:03.630Z,100160.31
2023-01-13T20:54:06.587Z,100172.28
2023-01-13T20:59:11.321Z,100184.78
2023-01-13T21:04:14.078Z,100197.97
2023-01-13T21:09:16.845Z,100185.81
2023-01-13T21:14:40.363Z,100181.81
2023-01-13T21:19:43.137Z,100199.00
2023-01-13T21:24:46.476Z,100197.53
2023-01-13T21:29:50.713Z,100212.53
2023-01-13T21:34:53.441Z,100229.31
2023-01-13T21:39:56.290Z,100231.97
2023-01-13T21:45:18.019Z,100239.22
2023-01-13T21:50:22.395Z,100243.84
2023-01-13T21:55:28.451Z,100266.88
2023-01-13T22:00:33.099Z,100261.97
2023-01-13T22:05:36.846Z,100276.31
2023-01-13T22:10:56.942Z,100286.16
2023-01-13T22:16:05.205Z,100298.25
2023-01-13T22:21:08.154Z,100304.97
2023-01-13T22:26:11.695Z,100314.81
2023-01-13T22:31:17.815Z,100316.34
2023-01-13T22:36:21.117Z,100328.53
2023-01-13T22:41:24.260Z,100334.69
2023-01-13T22:46:28.462Z,100343.72
2023-01-13T22:51:31.502Z,100347.66
2023-01-13T22:56:34.667Z,100353.44
2023-01-13T23:01:39.051Z,100361.91
2023-01-13T23:06:42.149Z,100373.47
2023-01-13T23:11:47.185Z,100381.84
2023-01-13T23:16:55.109Z,100402.34
2023-01-13T23:21:57.906Z,100412.19
2023-01-13T23:27:00.654Z,100417.72
2023-01-13T23:32:05.223Z,100421.47
2023-01-13T23:37:08.027Z,100434.47
2023-01-13T23:42:10.783Z,100434.34
2023-01-13T23:47:14.981Z,100437.94
2023-01-13T23:52:18.048Z,100447.06
2023-01-13T23:57:20.848Z,100448.06
